sensor_id;sensor_type;location;lat;lon;timestamp;pressure;altitude;pressure_sealevel;temperature;humidity
59419;BME280;45224;50.904;6.038;2022-08-07T00:00:55;100832.31;;;17.12;50.14
59419;BME280;45224;50.904;6.038;2022-08-07T00:02:25;100837.56;;;17.09;50.14
59419;BME280;45224;50.904;6.038;2022-08-07T00:03:56;100834.94;;;17.09;50.21
59419;BME280;45224;50.904;6.038;2022-08-07T00:05:27;100841.06;;;17.05;50.19
59419;BME280;45224;50.904;6.038;2022-08-07T00:06:57;100829.81;;;17.00;50.24
59419;BME280;45224;50.904;6.038;2022-08-07T00:08:28;100841.41;;;16.61;52.24
59419;BME280;45224;50.904;6.038;2022-08-07T00:09:58;100841.38;;;16.68;51.60
59419;BME280;45224;50.904;6.038;2022-08-07T00:11:29;100839.63;;;16.70;52.00
59419;BME280;45224;50.904;6.038;2022-08-07T00:13:01;100834.50;;;16.60;51.82
59419;BME280;45224;50.904;6.038;2022-08-07T00:14:32;100837.97;;;16.59;52.05
59419;BME280;45224;50.904;6.038;2022-08-07T00:16:03;100836.28;;;16.55;52.33
59419;BME280;45224;50.904;6.038;2022-08-07T00:17:34;100840.59;;;16.56;52.11
59419;BME280;45224;50.904;6.038;2022-08-07T00:19:05;100822.38;;;16.50;52.18
59419;BME280;45224;50.904;6.038;2022-08-07T00:20:37;100836.31;;;16.49;52.68
59419;BME280;45224;50.904;6.038;2022-08-07T00:22:07;100823.28;;;16.46;52.67
59419;BME280;45224;50.904;6.038;2022-08-07T00:23:39;100824.97;;;16.50;52.60
59419;BME280;45224;50.904;6.038;2022-08-07T00:25:10;100826.72;;;16.50;52.06
59419;BME280;45224;50.904;6.038;2022-08-07T00:26:40;100840.63;;;16.52;52.45
59419;BME280;45224;50.904;6.038;2022-08-07T00:28:11;100833.72;;;16.49;52.59
59419;BME280;45224;50.904;6.038;2022-08-07T00:29:42;100835.44;;;16.49;52.42
59419;BME280;45224;50.904;6.038;2022-08-07T00:31:12;100823.31;;;16.43;52.39
59419;BME280;45224;50.904;6.038;2022-08-07T00:32:43;100832.00;;;16.40;53.01
59419;BME280;45224;50.904;6.038;2022-08-07T00:34:15;100827.69;;;16.38;52.82
59419;BME280;45224;50.904;6.038;2022-08-07T00:35:46;100827.72;;;16.36;53.02
59419;BME280;45224;50.904;6.038;2022-08-07T00:37:17;100817.31;;;16.32;53.35
59419;BME280;45224;50.904;6.038;2022-08-07T00:38:47;100815.56;;;16.28;53.33
59419;BME280;45224;50.904;6.038;2022-08-07T00:40:18;100808.66;;;16.27;53.41
59419;BME280;45224;50.904;6.038;2022-08-07T00:41:53;100812.97;;;16.28;53.42
59419;BME280;45224;50.904;6.038;2022-08-07T00:43:25;100810.34;;;16.28;53.38
59419;BME280;45224;50.904;6.038;2022-08-07T00:44:55;100814.72;;;16.29;53.38
59419;BME280;45224;50.904;6.038;2022-08-07T00:46:26;100804.28;;;16.27;53.46
59419;BME280;45224;50.904;6.038;2022-08-07T00:47:56;100813.88;;;16.27;53.47
59419;BME280;45224;50.904;6.038;2022-08-07T00:49:27;100810.41;;;16.24;53.35
59419;BME280;45224;50.904;6.038;2022-08-07T00:50:59;100805.28;;;16.09;54.17
59419;BME280;45224;50.904;6.038;2022-08-07T00:52:29;100808.75;;;16.08;54.30
59419;BME280;45224;50.904;6.038;2022-08-07T00:54:00;100817.44;;;16.13;53.90
59419;BME280;45224;50.904;6.038;2022-08-07T00:55:31;100804.41;;;16.13;54.12
59419;BME280;45224;50.904;6.038;2022-08-07T00:57:02;100800.91;;;16.11;54.13
59419;BME280;45224;50.904;6.038;2022-08-07T00:58:35;100801.81;;;16.12;54.29
59419;BME280;45224;50.904;6.038;2022-08-07T01:00:06;100796.59;;;16.10;54.16
59419;BME280;45224;50.904;6.038;2022-08-07T01:01:37;100790.50;;;16.05;54.28
59419;BME280;45224;50.904;6.038;2022-08-07T01:03:08;100797.47;;;16.04;54.53
59419;BME280;45224;50.904;6.038;2022-08-07T01:04:40;100794.88;;;16.03;54.44
59419;BME280;45224;50.904;6.038;2022-08-07T01:06:10;100789.66;;;16.03;54.58
59419;BME280;45224;50.904;6.038;2022-08-07T01:07:41;100788.81;;;15.99;54.63
59419;BME280;45224;50.904;6.038;2022-08-07T01:09:12;100789.69;;;16.00;54.64
59419;BME280;45224;50.904;6.038;2022-08-07T01:10:42;100792.31;;;15.97;54.59
59419;BME280;45224;50.904;6.038;2022-08-07T01:12:14;100794.06;;;15.95;54.78
59419;BME280;45224;50.904;6.038;2022-08-07T01:13:45;100797.53;;;15.95;54.70
59419;BME280;45224;50.904;6.038;2022-08-07T01:15:16;100788.88;;;15.92;54.80
59419;BME280;45224;50.904;6.038;2022-08-07T01:16:47;100787.19;;;15.87;54.91
59419;BME280;45224;50.904;6.038;2022-08-07T01:18:20;100785.44;;;15.85;55.06
59419;BME280;45224;50.904;6.038;2022-08-07T01:19:55;100792.41;;;15.83;55.38
59419;BME280;45224;50.904;6.038;2022-08-07T01:21:27;100783.75;;;15.78;55.48
59419;BME280;45224;50.904;6.038;2022-08-07T01:23:00;100786.34;;;15.73;55.57
59419;BME280;45224;50.904;6.038;2022-08-07T01:24:32;100787.19;;;15.74;55.66
59419;BME280;45224;50.904;6.038;2022-08-07T01:26:04;100779.44;;;15.63;56.13
59419;BME280;45224;50.904;6.038;2022-08-07T01:27:37;100793.50;;;15.26;58.52
59419;BME280;45224;50.904;6.038;2022-08-07T01:29:09;100782.16;;;15.33;57.57
59419;BME280;45224;50.904;6.038;2022-08-07T01:30:41;100780.47;;;15.29;57.90
59419;BME280;45224;50.904;6.038;2022-08-07T01:32:12;100779.59;;;15.26;57.86
59419;BME280;45224;50.904;6.038;2022-08-07T01:33:45;100783.09;;;15.25;58.13
59419;BME280;45224;50.904;6.038;2022-08-07T01:35:16;100781.34;;;15.21;58.10
59419;BME280;45224;50.904;6.038;2022-08-07T01:36:48;100787.47;;;15.15;58.51
59419;BME280;45224;50.904;6.038;2022-08-07T01:38:23;100778.75;;;15.13;58.51
59419;BME280;45224;50.904;6.038;2022-08-07T01:39:53;100785.78;;;14.94;60.42
59419;BME280;45224;50.904;6.038;2022-08-07T01:41:33;100787.50;;;14.90;59.92
59419;BME280;45224;50.904;6.038;2022-08-07T01:43:06;100784.94;;;14.83;60.46
59419;BME280;45224;50.904;6.038;2022-08-07T01:44:36;100783.19;;;14.85;59.90
59419;BME280;45224;50.904;6.038;2022-08-07T01:46:07;100777.97;;;14.82;60.29
59419;BME280;45224;50.904;6.038;2022-08-07T01:47:42;100778.81;;;14.87;60.01
59419;BME280;45224;50.904;6.038;2022-08-07T01:49:13;100779.72;;;14.79;60.55
59419;BME280;45224;50.904;6.038;2022-08-07T01:51:11;100779.72;;;14.70;61.94
59419;BME280;45224;50.904;6.038;2022-08-07T01:52:44;100774.50;;;14.46;62.57
59419;BME280;45224;50.904;6.038;2022-08-07T01:54:19;100777.13;;;14.50;62.17
59419;BME280;45224;50.904;6.038;2022-08-07T01:56:01;100782.31;;;14.44;62.91
59419;BME280;45224;50.904;6.038;2022-08-07T01:57:36;100777.97;;;14.45;62.56
59419;BME280;45224;50.904;6.038;2022-08-07T01:59:43;100784.03;;;14.50;63.13
59419;BME280;45224;50.904;6.038;2022-08-07T02:01:23;100780.56;;;14.45;62.93
59419;BME280;45224;50.904;6.038;2022-08-07T02:03:00;100787.50;;;14.38;63.78
59419;BME280;45224;50.904;6.038;2022-08-07T02:04:52;100784.91;;;14.42;63.38
59419;BME280;45224;50.904;6.038;2022-08-07T02:06:26;100785.78;;;14.45;62.86
59419;BME280;45224;50.904;6.038;2022-08-07T02:08:07;100786.63;;;14.47;63.15
59419;BME280;45224;50.904;6.038;2022-08-07T02:09:42;100785.78;;;14.46;62.81
59419;BME280;45224;50.904;6.038;2022-08-07T02:11:15;100786.63;;;14.43;63.08
59419;BME280;45224;50.904;6.038;2022-08-07T02:12:47;100785.78;;;14.49;62.79
59419;BME280;45224;50.904;6.038;2022-08-07T02:14:25;100788.38;;;14.54;62.25
59419;BME280;45224;50.904;6.038;2022-08-07T02:15:59;100784.94;;;14.61;62.08
59419;BME280;45224;50.904;6.038;2022-08-07T02:17:31;100771.91;;;14.63;61.78
59419;BME280;45224;50.904;6.038;2022-08-07T02:19:03;100779.72;;;14.67;62.02
59419;BME280;45224;50.904;6.038;2022-08-07T02:20:35;100776.25;;;14.71;61.56
59419;BME280;45224;50.904;6.038;2022-08-07T02:22:06;100772.78;;;14.72;61.38
59419;BME280;45224;50.904;6.038;2022-08-07T02:23:38;100765.84;;;14.71;61.67
59419;BME280;45224;50.904;6.038;2022-08-07T02:25:11;100766.72;;;14.73;61.43
59419;BME280;45224;50.904;6.038;2022-08-07T02:26:43;100768.41;;;14.79;61.25
59419;BME280;45224;50.904;6.038;2022-08-07T02:28:16;100762.34;;;14.78;61.20
59419;BME280;45224;50.904;6.038;2022-08-07T02:29:49;100764.09;;;14.78;61.12
59419;BME280;45224;50.904;6.038;2022-08-07T02:31:22;100771.91;;;14.81;61.20
59419;BME280;45224;50.904;6.038;2022-08-07T02:32:53;100771.91;;;14.83;61.15
59419;BME280;45224;50.904;6.038;2022-08-07T02:34:25;100770.16;;;14.85;61.01
59419;BME280;45224;50.904;6.038;2022-08-07T02:35:59;100771.03;;;14.84;61.23
59419;BME280;45224;50.904;6.038;2022-08-07T02:37:37;100770.16;;;14.82;61.08
59419;BME280;45224;50.904;6.038;2022-08-07T02:39:11;100770.16;;;14.85;61.08
59419;BME280;45224;50.904;6.038;2022-08-07T02:40:43;100767.56;;;14.85;60.90
59419;BME280;45224;50.904;6.038;2022-08-07T02:42:16;100767.56;;;14.86;60.89
59419;BME280;45224;50.904;6.038;2022-08-07T02:43:51;100761.50;;;14.84;60.93
59419;BME280;45224;50.904;6.038;2022-08-07T02:45:24;100760.59;;;14.85;60.69
59419;BME280;45224;50.904;6.038;2022-08-07T02:46:58;100762.34;;;14.86;60.92
59419;BME280;45224;50.904;6.038;2022-08-07T02:48:32;100757.16;;;14.85;60.70
59419;BME280;45224;50.904;6.038;2022-08-07T02:50:03;100751.09;;;14.81;60.79
59419;BME280;45224;50.904;6.038;2022-08-07T02:51:38;100751.94;;;14.82;60.85
59419;BME280;45224;50.904;6.038;2022-08-07T02:53:14;100755.41;;;14.81;61.16
59419;BME280;45224;50.904;6.038;2022-08-07T02:54:48;100751.94;;;14.75;61.06
59419;BME280;45224;50.904;6.038;2022-08-07T02:56:22;100751.94;;;14.74;61.23
59419;BME280;45224;50.904;6.038;2022-08-07T02:58:03;100767.56;;;14.80;61.06
59419;BME280;45224;50.904;6.038;2022-08-07T02:59:35;100755.41;;;14.77;61.29
59419;BME280;45224;50.904;6.038;2022-08-07T03:01:10;100759.75;;;14.77;61.39
59419;BME280;45224;50.904;6.038;2022-08-07T03:02:44;100756.31;;;14.69;61.52
59419;BME280;45224;50.904;6.038;2022-08-07T03:04:17;100762.41;;;14.65;61.68
59419;BME280;45224;50.904;6.038;2022-08-07T03:05:50;100763.22;;;14.57;61.90
59419;BME280;45224;50.904;6.038;2022-08-07T03:07:22;100765.81;;;14.54;62.19
59419;BME280;45224;50.904;6.038;2022-08-07T03:08:53;100759.75;;;14.52;62.04
59419;BME280;45224;50.904;6.038;2022-08-07T03:10:24;100764.97;;;14.46;62.07
59419;BME280;45224;50.904;6.038;2022-08-07T03:11:55;100767.56;;;14.43;63.01
59419;BME280;45224;50.904;6.038;2022-08-07T03:13:27;100769.31;;;14.41;62.29
59419;BME280;45224;50.904;6.038;2022-08-07T03:14:58;100760.66;;;14.40;62.19
59419;BME280;45224;50.904;6.038;2022-08-07T03:16:30;100755.44;;;14.40;62.14
59419;BME280;45224;50.904;6.038;2022-08-07T03:18:01;100762.34;;;14.35;63.66
59419;BME280;45224;50.904;6.038;2022-08-07T03:19:33;100758.91;;;14.30;62.60
59419;BME280;45224;50.904;6.038;2022-08-07T03:21:04;100761.50;;;14.35;62.27
59419;BME280;45224;50.904;6.038;2022-08-07T03:22:37;100765.84;;;14.30;62.33
59419;BME280;45224;50.904;6.038;2022-08-07T03:24:09;100764.09;;;14.30;62.57
59419;BME280;45224;50.904;6.038;2022-08-07T03:25:40;100760.63;;;14.25;62.79
59419;BME280;45224;50.904;6.038;2022-08-07T03:27:14;100754.56;;;14.21;63.02
59419;BME280;45224;50.904;6.038;2022-08-07T03:28:48;100758.03;;;14.20;63.11
59419;BME280;45224;50.904;6.038;2022-08-07T03:30:20;100751.06;;;14.19;62.72
59419;BME280;45224;50.904;6.038;2022-08-07T03:31:54;100751.97;;;14.17;63.30
59419;BME280;45224;50.904;6.038;2022-08-07T03:33:25;100758.03;;;14.20;62.54
59419;BME280;45224;50.904;6.038;2022-08-07T03:34:59;100745.91;;;14.15;62.96
59419;BME280;45224;50.904;6.038;2022-08-07T03:36:33;100747.63;;;14.16;63.30
59419;BME280;45224;50.904;6.038;2022-08-07T03:38:07;100753.69;;;14.15;63.50
59419;BME280;45224;50.904;6.038;2022-08-07T03:39:38;100746.75;;;14.14;63.30
59419;BME280;45224;50.904;6.038;2022-08-07T03:41:12;100750.22;;;14.13;63.21
59419;BME280;45224;50.904;6.038;2022-08-07T03:42:43;100745.91;;;14.13;63.25
59419;BME280;45224;50.904;6.038;2022-08-07T03:44:16;100749.34;;;14.14;63.10
59419;BME280;45224;50.904;6.038;2022-08-07T03:45:47;100749.34;;;14.12;63.07
59419;BME280;45224;50.904;6.038;2022-08-07T03:47:20;100744.16;;;14.11;63.26
59419;BME280;45224;50.904;6.038;2022-08-07T03:48:52;100745.00;;;14.10;63.23
59419;BME280;45224;50.904;6.038;2022-08-07T03:50:23;100748.50;;;14.09;63.42
59419;BME280;45224;50.904;6.038;2022-08-07T03:51:57;100743.28;;;14.04;63.34
59419;BME280;45224;50.904;6.038;2022-08-07T03:53:29;100747.63;;;14.05;63.77
59419;BME280;45224;50.904;6.038;2022-08-07T03:55:00;100743.28;;;14.02;63.62
59419;BME280;45224;50.904;6.038;2022-08-07T03:56:33;100747.63;;;14.02;63.71
59419;BME280;45224;50.904;6.038;2022-08-07T03:58:08;100754.53;;;14.00;63.72
59419;BME280;45224;50.904;6.038;2022-08-07T03:59:42;100758.88;;;13.98;63.68
59419;BME280;45224;50.904;6.038;2022-08-07T04:01:14;100752.81;;;13.94;64.04
59419;BME280;45224;50.904;6.038;2022-08-07T04:02:49;100752.78;;;13.90;63.88
59419;BME280;45224;50.904;6.038;2022-08-07T04:04:29;100751.94;;;13.89;64.49
59419;BME280;45224;50.904;6.038;2022-08-07T04:06:07;100749.31;;;13.84;64.61
59419;BME280;45224;50.904;6.038;2022-08-07T04:07:44;100744.13;;;13.83;64.85
59419;BME280;45224;50.904;6.038;2022-08-07T04:09:19;100740.66;;;13.81;64.64
59419;BME280;45224;50.904;6.038;2022-08-07T04:10:51;100745.84;;;13.81;64.76
59419;BME280;45224;50.904;6.038;2022-08-07T04:12:21;100746.72;;;13.80;65.72
59419;BME280;45224;50.904;6.038;2022-08-07T04:13:53;100734.56;;;13.77;64.65
59419;BME280;45224;50.904;6.038;2022-08-07T04:15:24;100741.50;;;13.77;65.77
59419;BME280;45224;50.904;6.038;2022-08-07T04:16:57;100737.16;;;13.77;64.83
59419;BME280;45224;50.904;6.038;2022-08-07T04:18:27;100738.06;;;13.78;64.74
59419;BME280;45224;50.904;6.038;2022-08-07T04:19:58;100741.50;;;13.80;64.74
59419;BME280;45224;50.904;6.038;2022-08-07T04:21:31;100739.75;;;13.79;64.75
59419;BME280;45224;50.904;6.038;2022-08-07T04:23:03;100741.50;;;13.77;64.84
59419;BME280;45224;50.904;6.038;2022-08-07T04:24:38;100743.25;;;13.78;64.93
59419;BME280;45224;50.904;6.038;2022-08-07T04:26:11;100745.84;;;13.75;64.86
59419;BME280;45224;50.904;6.038;2022-08-07T04:27:42;100751.03;;;13.75;65.01
59419;BME280;45224;50.904;6.038;2022-08-07T04:29:15;100748.44;;;13.73;65.00
59419;BME280;45224;50.904;6.038;2022-08-07T04:30:47;100749.28;;;13.74;65.20
59419;BME280;45224;50.904;6.038;2022-08-07T04:32:23;100740.63;;;13.72;65.10
59419;BME280;45224;50.904;6.038;2022-08-07T04:33:54;100744.97;;;13.73;65.11
59419;BME280;45224;50.904;6.038;2022-08-07T04:35:25;100744.97;;;13.73;65.23
59419;BME280;45224;50.904;6.038;2022-08-07T04:36:58;100748.44;;;13.75;65.14
59419;BME280;45224;50.904;6.038;2022-08-07T04:38:30;100750.16;;;13.74;65.14
59419;BME280;45224;50.904;6.038;2022-08-07T04:40:03;100747.56;;;13.77;65.34
59419;BME280;45224;50.904;6.038;2022-08-07T04:41:33;100753.66;;;13.79;65.23
59419;BME280;45224;50.904;6.038;2022-08-07T04:43:04;100749.31;;;13.80;65.34
59419;BME280;45224;50.904;6.038;2022-08-07T04:44:39;100753.66;;;13.81;65.40
59419;BME280;45224;50.904;6.038;2022-08-07T04:46:35;100747.56;;;13.80;66.01
59419;BME280;45224;50.904;6.038;2022-08-07T04:48:32;100747.56;;;13.82;65.93
59419;BME280;45224;50.904;6.038;2022-08-07T04:50:09;100754.53;;;13.84;65.41
59419;BME280;45224;50.904;6.038;2022-08-07T04:52:01;100760.56;;;13.85;65.79
59419;BME280;45224;50.904;6.038;2022-08-07T04:53:38;100753.63;;;13.87;65.54
59419;BME280;45224;50.904;6.038;2022-08-07T04:55:23;100755.38;;;13.88;66.10
59419;BME280;45224;50.904;6.038;2022-08-07T04:57:01;100757.16;;;13.92;65.62
59419;BME280;45224;50.904;6.038;2022-08-07T04:58:47;100751.94;;;13.92;66.08
59419;BME280;45224;50.904;6.038;2022-08-07T05:00:37;100758.88;;;13.98;66.28
59419;BME280;45224;50.904;6.038;2022-08-07T05:02:13;100759.72;;;13.97;65.94
59419;BME280;45224;50.904;6.038;2022-08-07T05:04:05;100766.69;;;14.02;66.37
59419;BME280;45224;50.904;6.038;2022-08-07T05:05:50;100764.94;;;14.01;66.27
59419;BME280;45224;50.904;6.038;2022-08-07T05:07:35;100765.84;;;14.06;66.25
59419;BME280;45224;50.904;6.038;2022-08-07T05:09:25;100774.50;;;14.09;66.34
59419;BME280;45224;50.904;6.038;2022-08-07T05:11:10;100771.00;;;14.10;66.34
59419;BME280;45224;50.904;6.038;2022-08-07T05:12:56;100764.97;;;14.12;66.15
59419;BME280;45224;50.904;6.038;2022-08-07T05:16:05;100760.63;;;14.19;65.72
59419;BME280;45224;50.904;6.038;2022-08-07T05:17:37;100776.25;;;14.25;65.75
59419;BME280;45224;50.904;6.038;2022-08-07T05:19:12;100768.44;;;14.28;65.65
59419;BME280;45224;50.904;6.038;2022-08-07T05:20:47;100773.66;;;14.34;65.46
59419;BME280;45224;50.904;6.038;2022-08-07T05:22:20;100771.91;;;14.39;65.48
59419;BME280;45224;50.904;6.038;2022-08-07T05:23:57;100770.16;;;14.41;65.58
59419;BME280;45224;50.904;6.038;2022-08-07T05:25:30;100773.63;;;14.48;65.30
59419;BME280;45224;50.904;6.038;2022-08-07T05:27:01;100771.03;;;14.50;65.42
59419;BME280;45224;50.904;6.038;2022-08-07T05:28:34;100773.63;;;14.53;65.71
59419;BME280;45224;50.904;6.038;2022-08-07T05:30:05;100770.22;;;14.60;65.48
59419;BME280;45224;50.904;6.038;2022-08-07T05:31:39;100779.72;;;14.67;65.36
59419;BME280;45224;50.904;6.038;2022-08-07T05:33:16;100765.84;;;14.74;65.12
59419;BME280;45224;50.904;6.038;2022-08-07T05:34:47;100782.31;;;14.83;65.54
59419;BME280;45224;50.904;6.038;2022-08-07T05:36:20;100777.97;;;14.88;65.37
59419;BME280;45224;50.904;6.038;2022-08-07T05:37:51;100780.56;;;14.99;65.19
59419;BME280;45224;50.904;6.038;2022-08-07T05:39:23;100788.31;;;15.09;64.85
59419;BME280;45224;50.904;6.038;2022-08-07T05:40:57;100788.31;;;15.15;65.27
59419;BME280;45224;50.904;6.038;2022-08-07T05:42:27;100788.28;;;15.25;64.56
59419;BME280;45224;50.904;6.038;2022-08-07T05:43:58;100783.00;;;15.37;64.35
59419;BME280;45224;50.904;6.038;2022-08-07T05:45:29;100781.22;;;15.48;64.25
59419;BME280;45224;50.904;6.038;2022-08-07T05:47:05;100783.81;;;15.59;64.08
59419;BME280;45224;50.904;6.038;2022-08-07T05:48:39;100785.53;;;15.65;63.97
59419;BME280;45224;50.904;6.038;2022-08-07T05:50:10;100793.28;;;15.73;63.76
59419;BME280;45224;50.904;6.038;2022-08-07T05:51:42;100790.69;;;15.79;63.63
59419;BME280;45224;50.904;6.038;2022-08-07T05:53:13;100781.09;;;15.82;63.44
59419;BME280;45224;50.904;6.038;2022-08-07T05:54:43;100793.25;;;15.90;63.06
59419;BME280;45224;50.904;6.038;2022-08-07T05:56:18;100798.41;;;15.99;62.91
59419;BME280;45224;50.904;6.038;2022-08-07T05:57:53;100795.69;;;16.11;63.21
59419;BME280;45224;50.904;6.038;2022-08-07T05:59:24;100799.09;;;16.21;62.75
59419;BME280;45224;50.904;6.038;2022-08-07T06:01:01;100799.03;;;16.30;62.45
59419;BME280;45224;50.904;6.038;2022-08-07T06:02:34;100796.38;;;16.38;61.76
59419;BME280;45224;50.904;6.038;2022-08-07T06:04:07;100800.78;;;16.34;61.50
59419;BME280;45224;50.904;6.038;2022-08-07T06:05:43;100799.84;;;16.40;61.34
59419;BME280;45224;50.904;6.038;2022-08-07T06:07:15;100804.16;;;16.47;60.92
59419;BME280;45224;50.904;6.038;2022-08-07T06:08:47;100808.41;;;16.57;61.13
59419;BME280;45224;50.904;6.038;2022-08-07T06:10:18;100800.50;;;16.65;61.41
59419;BME280;45224;50.904;6.038;2022-08-07T06:11:49;100799.53;;;16.77;61.22
59419;BME280;45224;50.904;6.038;2022-08-07T06:13:22;100802.97;;;16.85;60.61
59419;BME280;45224;50.904;6.038;2022-08-07T06:14:53;100797.69;;;16.91;60.01
59419;BME280;45224;50.904;6.038;2022-08-07T06:16:28;100799.41;;;16.92;59.93
59419;BME280;45224;50.904;6.038;2022-08-07T06:18:02;100801.09;;;16.96;59.92
59419;BME280;45224;50.904;6.038;2022-08-07T06:19:33;100801.78;;;17.14;59.37
59419;BME280;45224;50.904;6.038;2022-08-07T06:21:04;100808.69;;;17.18;58.84
59419;BME280;45224;50.904;6.038;2022-08-07T06:22:38;100803.34;;;17.29;58.97
59419;BME280;45224;50.904;6.038;2022-08-07T06:24:24;100800.63;;;17.41;57.77
59419;BME280;45224;50.904;6.038;2022-08-07T06:25:57;100810.03;;;17.53;57.59
59419;BME280;45224;50.904;6.038;2022-08-07T06:27:29;100810.84;;;17.58;57.59
59419;BME280;45224;50.904;6.038;2022-08-07T06:29:00;100799.50;;;17.61;57.45
59419;BME280;45224;50.904;6.038;2022-08-07T06:30:37;100802.84;;;17.72;56.62
59419;BME280;45224;50.904;6.038;2022-08-07T06:32:15;100800.09;;;17.83;56.85
59419;BME280;45224;50.904;6.038;2022-08-07T06:33:46;100786.06;;;17.90;55.86
59419;BME280;45224;50.904;6.038;2022-08-07T06:35:18;100787.66;;;17.97;55.62
59419;BME280;45224;50.904;6.038;2022-08-07T06:36:49;100794.56;;;18.04;55.49
59419;BME280;45224;50.904;6.038;2022-08-07T06:38:20;100789.34;;;18.04;55.46
59419;BME280;45224;50.904;6.038;2022-08-07T06:39:51;100786.69;;;18.06;55.67
59419;BME280;45224;50.904;6.038;2022-08-07T06:41:30;100790.81;;;18.21;55.79
59419;BME280;45224;50.904;6.038;2022-08-07T06:43:04;100786.28;;;18.32;55.22
59419;BME280;45224;50.904;6.038;2022-08-07T06:44:52;100787.78;;;18.47;55.11
59419;BME280;45224;50.904;6.038;2022-08-07T06:46:25;100788.47;;;18.57;54.69
59419;BME280;45224;50.904;6.038;2022-08-07T06:47:57;100784.03;;;18.64;54.51
59419;BME280;45224;50.904;6.038;2022-08-07T06:49:28;100794.31;;;18.73;54.25
59419;BME280;45224;50.904;6.038;2022-08-07T06:50:59;100787.31;;;18.75;53.93
59419;BME280;45224;50.904;6.038;2022-08-07T06:52:37;100793.22;;;18.88;53.33
59419;BME280;45224;50.904;6.038;2022-08-07T06:54:14;100782.63;;;18.94;53.26
59419;BME280;45224;50.904;6.038;2022-08-07T06:55:46;100792.88;;;19.06;53.04
59419;BME280;45224;50.904;6.038;2022-08-07T06:57:19;100788.28;;;19.18;53.01
59419;BME280;45224;50.904;6.038;2022-08-07T06:58:51;100795.22;;;19.22;52.69
59419;BME280;45224;50.904;6.038;2022-08-07T07:00:22;100784.47;;;19.34;52.44
59419;BME280;45224;50.904;6.038;2022-08-07T07:01:53;100785.16;;;19.42;52.20
59419;BME280;45224;50.904;6.038;2022-08-07T07:03:26;100786.72;;;19.52;52.07
59419;BME280;45224;50.904;6.038;2022-08-07T07:04:58;100788.28;;;19.60;51.37
59419;BME280;45224;50.904;6.038;2022-08-07T07:06:30;100783.22;;;19.50;51.35
59419;BME280;45224;50.904;6.038;2022-08-07T07:08:01;100783.72;;;19.69;50.70
59419;BME280;45224;50.904;6.038;2022-08-07T07:09:32;100781.66;;;19.85;50.04
59419;BME280;45224;50.904;6.038;2022-08-07T07:11:03;100787.44;;;20.00;50.04
59419;BME280;45224;50.904;6.038;2022-08-07T07:12:45;100792.66;;;19.61;47.89
59419;BME280;45224;50.904;6.038;2022-08-07T07:14:20;100794.94;;;19.78;48.89
59419;BME280;45224;50.904;6.038;2022-08-07T07:16:00;100798.78;;;20.00;48.52
59419;BME280;45224;50.904;6.038;2022-08-07T07:19:35;100792.97;;;19.87;48.36
59419;BME280;45224;50.904;6.038;2022-08-07T07:21:16;100793.44;;;20.05;46.94
59419;BME280;45224;50.904;6.038;2022-08-07T07:22:48;100793.06;;;20.22;47.69
59419;BME280;45224;50.904;6.038;2022-08-07T07:24:20;100789.69;;;20.15;47.55
59419;BME280;45224;50.904;6.038;2022-08-07T07:25:53;100791.94;;;19.95;47.58
59419;BME280;45224;50.904;6.038;2022-08-07T07:27:28;100782.41;;;20.27;47.67
59419;BME280;45224;50.904;6.038;2022-08-07T07:29:04;100781.88;;;20.50;47.25
59419;BME280;45224;50.904;6.038;2022-08-07T07:30:41;100789.44;;;20.60;45.79
59419;BME280;45224;50.904;6.038;2022-08-07T07:32:15;100792.53;;;20.78;47.00
59419;BME280;45224;50.904;6.038;2022-08-07T07:33:49;100790.41;;;20.92;47.08
59419;BME280;45224;50.904;6.038;2022-08-07T07:35:21;100790.25;;;20.98;46.78
59419;BME280;45224;50.904;6.038;2022-08-07T07:36:53;100789.00;;;21.12;46.63
59419;BME280;45224;50.904;6.038;2022-08-07T07:38:26;100787.25;;;21.42;45.63
59419;BME280;45224;50.904;6.038;2022-08-07T07:39:58;100784.69;;;21.41;43.24
59419;BME280;45224;50.904;6.038;2022-08-07T07:41:31;100780.50;;;21.65;43.74
59419;BME280;45224;50.904;6.038;2022-08-07T07:43:04;100776.53;;;21.80;43.24
59419;BME280;45224;50.904;6.038;2022-08-07T07:44:37;100780.28;;;21.99;42.84
59419;BME280;45224;50.904;6.038;2022-08-07T07:46:09;100783.63;;;22.06;43.60
59419;BME280;45224;50.904;6.038;2022-08-07T07:47:41;100781.31;;;22.22;42.67
59419;BME280;45224;50.904;6.038;2022-08-07T07:49:15;100786.09;;;21.82;42.89
59419;BME280;45224;50.904;6.038;2022-08-07T07:50:47;100779.16;;;22.08;43.39
59419;BME280;45224;50.904;6.038;2022-08-07T07:52:20;100776.50;;;22.36;43.02
59419;BME280;45224;50.904;6.038;2022-08-07T07:53:52;100773.84;;;22.63;43.21
59419;BME280;45224;50.904;6.038;2022-08-07T07:55:24;100777.69;;;22.79;43.02
59419;BME280;45224;50.904;6.038;2022-08-07T07:56:57;100782.00;;;23.07;42.76
59419;BME280;45224;50.904;6.038;2022-08-07T07:58:32;100776.78;;;23.29;41.03
59419;BME280;45224;50.904;6.038;2022-08-07T08:00:05;100784.06;;;23.46;40.11
59419;BME280;45224;50.904;6.038;2022-08-07T08:01:44;100785.09;;;23.66;40.22
59419;BME280;45224;50.904;6.038;2022-08-07T08:03:15;100770.50;;;23.79;40.89
59419;BME280;45224;50.904;6.038;2022-08-07T08:04:48;100781.47;;;23.92;38.71
59419;BME280;45224;50.904;6.038;2022-08-07T08:06:19;100777.63;;;24.21;38.59
59419;BME280;45224;50.904;6.038;2022-08-07T08:07:49;100780.69;;;24.33;37.28
59419;BME280;45224;50.904;6.038;2022-08-07T08:09:21;100774.66;;;23.63;37.58
59419;BME280;45224;50.904;6.038;2022-08-07T08:10:53;100771.25;;;23.83;37.19
59419;BME280;45224;50.904;6.038;2022-08-07T08:12:24;100775.19;;;23.95;37.96
59419;BME280;45224;50.904;6.038;2022-08-07T08:13:55;100779.06;;;23.86;37.63